Schedule Details

Flight Number: CPX236
Departure: Washington Dulles International Airport (KIAD) at N/A
Arrival: March Air Reserve Base (KRIV) at N/A
Route: BUNZZ3 RAMAY Q72 HACKS J149 EMPTY J80 SAAGS J80 MCI J24 SLN J102 LAA J102 GUP J96 PKE J78 TRM ARKOE1


Current Weather Information
KIAD 192252Z 35004KT 10SM OVC200 03/M13 A3059 RMK AO2 SLP363 T00281133
KRIV 192258Z AUTO 30003KT 10SM CLR 12/M08 A3005 RMK AO2 SLP178 T01151079